sensor_id;sensor_type;location;lat;lon;timestamp;temperature;humidity
38458;DHT22;24239;48.058;10.486;2023-06-22T06:21:19;22.90;99.90
38458;DHT22;24239;48.058;10.486;2023-06-22T06:23:45;22.40;99.90
38458;DHT22;24239;48.058;10.486;2023-06-22T06:26:11;22.50;99.90
38458;DHT22;24239;48.058;10.486;2023-06-22T06:28:36;22.30;99.90
38458;DHT22;24239;48.058;10.486;2023-06-22T06:31:02;22.00;99.90
38458;DHT22;24239;48.058;10.486;2023-06-22T06:33:28;21.70;99.90
38458;DHT22;24239;48.058;10.486;2023-06-22T06:35:53;21.70;99.90
38458;DHT22;24239;48.058;10.486;2023-06-22T06:38:21;21.50;99.90
38458;DHT22;24239;48.058;10.486;2023-06-22T06:40:46;21.30;99.90
38458;DHT22;24239;48.058;10.486;2023-06-22T06:43:14;21.40;99.90
38458;DHT22;24239;48.058;10.486;2023-06-22T06:45:40;21.40;99.90
38458;DHT22;24239;48.058;10.486;2023-06-22T06:48:05;21.70;99.90
38458;DHT22;24239;48.058;10.486;2023-06-22T06:50:31;21.90;99.90
38458;DHT22;24239;48.058;10.486;2023-06-22T06:52:57;21.90;99.90
38458;DHT22;24239;48.058;10.486;2023-06-22T06:55:24;22.00;99.90
38458;DHT22;24239;48.058;10.486;2023-06-22T06:57:50;22.10;99.90
38458;DHT22;24239;48.058;10.486;2023-06-22T07:00:18;22.30;99.90
38458;DHT22;24239;48.058;10.486;2023-06-22T07:02:44;22.30;99.90
38458;DHT22;24239;48.058;10.486;2023-06-22T07:05:11;22.30;99.90
38458;DHT22;24239;48.058;10.486;2023-06-22T07:07:37;22.40;99.90
38458;DHT22;24239;48.058;10.486;2023-06-22T07:10:03;22.30;99.90
38458;DHT22;24239;48.058;10.486;2023-06-22T07:12:29;22.40;99.90
38458;DHT22;24239;48.058;10.486;2023-06-22T07:15:00;22.50;99.90
38458;DHT22;24239;48.058;10.486;2023-06-22T07:17:26;22.30;99.90
38458;DHT22;24239;48.058;10.486;2023-06-22T07:19:51;22.40;99.90
38458;DHT22;24239;48.058;10.486;2023-06-22T07:22:17;22.70;99.90
38458;DHT22;24239;48.058;10.486;2023-06-22T07:24:43;22.70;99.90
38458;DHT22;24239;48.058;10.486;2023-06-22T07:27:08;22.90;99.90
38458;DHT22;24239;48.058;10.486;2023-06-22T07:29:36;22.90;99.90
38458;DHT22;24239;48.058;10.486;2023-06-22T07:32:03;22.80;99.90
38458;DHT22;24239;48.058;10.486;2023-06-22T07:34:30;22.90;99.90
38458;DHT22;24239;48.058;10.486;2023-06-22T07:36:56;22.90;99.90
38458;DHT22;24239;48.058;10.486;2023-06-22T07:39:21;23.00;99.90
38458;DHT22;24239;48.058;10.486;2023-06-22T07:41:51;23.10;99.90
38458;DHT22;24239;48.058;10.486;2023-06-22T07:44:17;23.20;99.90
38458;DHT22;24239;48.058;10.486;2023-06-22T07:46:42;23.20;99.90
38458;DHT22;24239;48.058;10.486;2023-06-22T07:49:08;23.30;99.90
38458;DHT22;24239;48.058;10.486;2023-06-22T07:51:34;23.30;99.90
38458;DHT22;24239;48.058;10.486;2023-06-22T07:53:59;23.40;99.90
38458;DHT22;24239;48.058;10.486;2023-06-22T07:56:25;23.50;99.90
38458;DHT22;24239;48.058;10.486;2023-06-22T07:58:51;23.60;99.90
38458;DHT22;24239;48.058;10.486;2023-06-22T08:01:17;23.60;99.90
38458;DHT22;24239;48.058;10.486;2023-06-22T08:03:47;23.70;99.90
38458;DHT22;24239;48.058;10.486;2023-06-22T08:06:16;23.80;99.90
38458;DHT22;24239;48.058;10.486;2023-06-22T08:08:43;23.90;99.90
38458;DHT22;24239;48.058;10.486;2023-06-22T08:11:15;23.90;99.90
38458;DHT22;24239;48.058;10.486;2023-06-22T08:13:44;23.90;99.90
38458;DHT22;24239;48.058;10.486;2023-06-22T08:16:09;24.10;99.90
38458;DHT22;24239;48.058;10.486;2023-06-22T08:18:38;24.20;99.90
38458;DHT22;24239;48.058;10.486;2023-06-22T08:21:04;24.20;99.90
38458;DHT22;24239;48.058;10.486;2023-06-22T08:23:30;24.20;99.90
38458;DHT22;24239;48.058;10.486;2023-06-22T08:25:57;24.30;99.90
38458;DHT22;24239;48.058;10.486;2023-06-22T08:28:25;24.40;99.90
38458;DHT22;24239;48.058;10.486;2023-06-22T08:30:51;24.50;99.90
38458;DHT22;24239;48.058;10.486;2023-06-22T08:33:16;24.50;99.90
38458;DHT22;24239;48.058;10.486;2023-06-22T08:35:43;24.70;99.90
38458;DHT22;24239;48.058;10.486;2023-06-22T08:38:12;24.70;99.90
38458;DHT22;24239;48.058;10.486;2023-06-22T08:40:41;24.80;99.90
38458;DHT22;24239;48.058;10.486;2023-06-22T08:43:06;24.90;99.90
38458;DHT22;24239;48.058;10.486;2023-06-22T08:45:32;24.90;99.90
38458;DHT22;24239;48.058;10.486;2023-06-22T08:47:59;25.00;99.90
38458;DHT22;24239;48.058;10.486;2023-06-22T08:50:26;25.20;99.90
38458;DHT22;24239;48.058;10.486;2023-06-22T08:52:51;25.30;99.90
38458;DHT22;24239;48.058;10.486;2023-06-22T08:55:17;25.40;99.90
38458;DHT22;24239;48.058;10.486;2023-06-22T08:57:45;25.40;99.90
38458;DHT22;24239;48.058;10.486;2023-06-22T09:00:11;25.30;99.90
38458;DHT22;24239;48.058;10.486;2023-06-22T09:02:48;25.30;99.90
38458;DHT22;24239;48.058;10.486;2023-06-22T09:05:14;25.40;99.90
38458;DHT22;24239;48.058;10.486;2023-06-22T09:07:41;25.40;99.90
38458;DHT22;24239;48.058;10.486;2023-06-22T09:10:08;25.50;99.90
38458;DHT22;24239;48.058;10.486;2023-06-22T09:12:34;25.70;99.90
38458;DHT22;24239;48.058;10.486;2023-06-22T09:15:03;25.70;99.90
38458;DHT22;24239;48.058;10.486;2023-06-22T09:17:32;25.80;99.90
38458;DHT22;24239;48.058;10.486;2023-06-22T09:19:58;25.90;99.90
38458;DHT22;24239;48.058;10.486;2023-06-22T09:22:26;26.10;99.90
38458;DHT22;24239;48.058;10.486;2023-06-22T09:24:55;26.20;99.90
38458;DHT22;24239;48.058;10.486;2023-06-22T09:27:21;26.30;99.90
38458;DHT22;24239;48.058;10.486;2023-06-22T09:29:49;26.50;99.90
38458;DHT22;24239;48.058;10.486;2023-06-22T09:32:16;26.70;99.90
38458;DHT22;24239;48.058;10.486;2023-06-22T09:34:44;26.80;99.90
38458;DHT22;24239;48.058;10.486;2023-06-22T09:37:09;26.90;99.90
38458;DHT22;24239;48.058;10.486;2023-06-22T09:39:37;27.10;99.90
38458;DHT22;24239;48.058;10.486;2023-06-22T09:42:04;27.20;99.90
38458;DHT22;24239;48.058;10.486;2023-06-22T09:44:33;27.40;99.90
38458;DHT22;24239;48.058;10.486;2023-06-22T09:47:01;27.50;99.90
38458;DHT22;24239;48.058;10.486;2023-06-22T09:49:28;27.70;99.90
38458;DHT22;24239;48.058;10.486;2023-06-22T09:51:55;27.80;99.90
38458;DHT22;24239;48.058;10.486;2023-06-22T09:54:22;27.80;99.90
38458;DHT22;24239;48.058;10.486;2023-06-22T09:56:48;27.80;99.90
38458;DHT22;24239;48.058;10.486;2023-06-22T09:59:16;27.70;99.90
38458;DHT22;24239;48.058;10.486;2023-06-22T10:01:45;27.90;99.90
38458;DHT22;24239;48.058;10.486;2023-06-22T10:04:14;27.90;99.90
38458;DHT22;24239;48.058;10.486;2023-06-22T10:06:43;27.90;99.90
38458;DHT22;24239;48.058;10.486;2023-06-22T10:09:11;27.90;99.90
38458;DHT22;24239;48.058;10.486;2023-06-22T10:11:39;27.80;99.90
38458;DHT22;24239;48.058;10.486;2023-06-22T10:14:07;27.90;99.90
38458;DHT22;24239;48.058;10.486;2023-06-22T10:16:33;28.10;99.90
38458;DHT22;24239;48.058;10.486;2023-06-22T10:19:03;28.20;99.90
38458;DHT22;24239;48.058;10.486;2023-06-22T10:21:29;28.30;99.90
38458;DHT22;24239;48.058;10.486;2023-06-22T10:23:57;28.40;99.90
38458;DHT22;24239;48.058;10.486;2023-06-22T10:26:25;28.60;99.90
38458;DHT22;24239;48.058;10.486;2023-06-22T10:28:56;28.70;99.90
38458;DHT22;24239;48.058;10.486;2023-06-22T10:31:21;28.80;99.90
38458;DHT22;24239;48.058;10.486;2023-06-22T10:33:47;28.80;99.90
38458;DHT22;24239;48.058;10.486;2023-06-22T10:36:15;28.80;99.90
38458;DHT22;24239;48.058;10.486;2023-06-22T10:38:43;28.70;99.90
38458;DHT22;24239;48.058;10.486;2023-06-22T10:41:13;28.70;99.90
38458;DHT22;24239;48.058;10.486;2023-06-22T10:43:41;28.70;99.90
38458;DHT22;24239;48.058;10.486;2023-06-22T10:46:08;28.70;99.90
38458;DHT22;24239;48.058;10.486;2023-06-22T10:48:34;28.60;99.90
38458;DHT22;24239;48.058;10.486;2023-06-22T10:51:00;28.70;99.90
38458;DHT22;24239;48.058;10.486;2023-06-22T10:53:25;28.70;99.90
38458;DHT22;24239;48.058;10.486;2023-06-22T10:55:51;28.90;99.90
38458;DHT22;24239;48.058;10.486;2023-06-22T10:58:18;28.90;99.90
38458;DHT22;24239;48.058;10.486;2023-06-22T11:00:47;29.10;99.90
38458;DHT22;24239;48.058;10.486;2023-06-22T11:03:14;29.30;98.80
38458;DHT22;24239;48.058;10.486;2023-06-22T11:05:40;29.30;98.80
38458;DHT22;24239;48.058;10.486;2023-06-22T11:08:07;29.30;99.30
38458;DHT22;24239;48.058;10.486;2023-06-22T11:10:32;29.40;98.50
38458;DHT22;24239;48.058;10.486;2023-06-22T11:12:58;29.60;98.50
38458;DHT22;24239;48.058;10.486;2023-06-22T11:15:24;29.60;98.80
38458;DHT22;24239;48.058;10.486;2023-06-22T11:17:50;29.70;98.50
38458;DHT22;24239;48.058;10.486;2023-06-22T11:20:17;30.00;98.90
38458;DHT22;24239;48.058;10.486;2023-06-22T11:22:42;30.20;99.30
38458;DHT22;24239;48.058;10.486;2023-06-22T11:25:08;30.40;99.10
38458;DHT22;24239;48.058;10.486;2023-06-22T11:27:34;30.60;99.30
38458;DHT22;24239;48.058;10.486;2023-06-22T11:30:02;30.60;98.70
38458;DHT22;24239;48.058;10.486;2023-06-22T11:32:28;30.70;98.30
38458;DHT22;24239;48.058;10.486;2023-06-22T11:34:54;30.70;98.00
38458;DHT22;24239;48.058;10.486;2023-06-22T11:37:21;30.70;98.40
38458;DHT22;24239;48.058;10.486;2023-06-22T11:39:50;30.80;97.20
38458;DHT22;24239;48.058;10.486;2023-06-22T11:42:17;30.90;97.70
38458;DHT22;24239;48.058;10.486;2023-06-22T11:44:46;30.80;97.40
38458;DHT22;24239;48.058;10.486;2023-06-22T11:47:13;30.80;97.30
38458;DHT22;24239;48.058;10.486;2023-06-22T11:49:41;30.90;97.60
38458;DHT22;24239;48.058;10.486;2023-06-22T11:52:07;30.90;97.20
38458;DHT22;24239;48.058;10.486;2023-06-22T11:54:34;30.90;98.00
38458;DHT22;24239;48.058;10.486;2023-06-22T11:57:00;31.00;97.40
38458;DHT22;24239;48.058;10.486;2023-06-22T11:59:28;30.90;97.60
38458;DHT22;24239;48.058;10.486;2023-06-22T12:01:57;31.00;97.30
38458;DHT22;24239;48.058;10.486;2023-06-22T12:04:25;31.00;97.20
38458;DHT22;24239;48.058;10.486;2023-06-22T12:06:52;31.10;96.80
38458;DHT22;24239;48.058;10.486;2023-06-22T12:09:20;31.00;96.70
38458;DHT22;24239;48.058;10.486;2023-06-22T12:11:48;31.10;96.90
38458;DHT22;24239;48.058;10.486;2023-06-22T12:14:13;31.30;96.50
38458;DHT22;24239;48.058;10.486;2023-06-22T12:16:40;31.10;96.10
38458;DHT22;24239;48.058;10.486;2023-06-22T12:19:07;31.20;96.50
38458;DHT22;24239;48.058;10.486;2023-06-22T12:21:34;31.30;96.50
38458;DHT22;24239;48.058;10.486;2023-06-22T12:24:01;31.50;95.90
38458;DHT22;24239;48.058;10.486;2023-06-22T12:26:27;31.50;96.20
38458;DHT22;24239;48.058;10.486;2023-06-22T12:28:52;31.30;96.10
38458;DHT22;24239;48.058;10.486;2023-06-22T12:31:19;31.30;96.20
38458;DHT22;24239;48.058;10.486;2023-06-22T12:33:45;31.50;96.50
38458;DHT22;24239;48.058;10.486;2023-06-22T12:36:10;31.40;95.70
38458;DHT22;24239;48.058;10.486;2023-06-22T12:38:36;31.60;95.70
38458;DHT22;24239;48.058;10.486;2023-06-22T12:41:02;31.60;95.80
38458;DHT22;24239;48.058;10.486;2023-06-22T12:43:27;31.70;95.80
38458;DHT22;24239;48.058;10.486;2023-06-22T12:45:54;31.60;96.20
38458;DHT22;24239;48.058;10.486;2023-06-22T12:48:22;31.60;95.30
38458;DHT22;24239;48.058;10.486;2023-06-22T12:50:51;31.60;95.30
38458;DHT22;24239;48.058;10.486;2023-06-22T12:53:16;31.70;95.90
38458;DHT22;24239;48.058;10.486;2023-06-22T12:55:43;31.90;95.50
38458;DHT22;24239;48.058;10.486;2023-06-22T12:58:09;31.80;95.20
38458;DHT22;24239;48.058;10.486;2023-06-22T13:00:35;31.90;95.40
38458;DHT22;24239;48.058;10.486;2023-06-22T13:03:03;31.90;95.00
38458;DHT22;24239;48.058;10.486;2023-06-22T13:05:29;31.90;95.20
38458;DHT22;24239;48.058;10.486;2023-06-22T13:07:57;31.80;95.00
38458;DHT22;24239;48.058;10.486;2023-06-22T13:10:23;31.90;94.90
38458;DHT22;24239;48.058;10.486;2023-06-22T13:12:48;31.90;94.40
38458;DHT22;24239;48.058;10.486;2023-06-22T13:15:14;32.00;94.00
38458;DHT22;24239;48.058;10.486;2023-06-22T13:17:40;32.20;93.80
38458;DHT22;24239;48.058;10.486;2023-06-22T13:20:07;32.20;92.90
38458;DHT22;24239;48.058;10.486;2023-06-22T13:22:33;32.40;92.70
38458;DHT22;24239;48.058;10.486;2023-06-22T13:25:06;32.30;92.40
38458;DHT22;24239;48.058;10.486;2023-06-22T13:27:33;32.40;92.90
38458;DHT22;24239;48.058;10.486;2023-06-22T13:29:59;32.70;92.60
38458;DHT22;24239;48.058;10.486;2023-06-22T13:32:26;32.90;92.70
38458;DHT22;24239;48.058;10.486;2023-06-22T13:34:53;32.90;91.70
38458;DHT22;24239;48.058;10.486;2023-06-22T13:37:21;33.00;92.00
38458;DHT22;24239;48.058;10.486;2023-06-22T13:39:49;33.10;91.50
38458;DHT22;24239;48.058;10.486;2023-06-22T13:42:18;33.40;90.90
38458;DHT22;24239;48.058;10.486;2023-06-22T13:44:47;33.40;90.50
38458;DHT22;24239;48.058;10.486;2023-06-22T13:47:16;33.50;90.50
38458;DHT22;24239;48.058;10.486;2023-06-22T13:49:45;33.50;90.50
38458;DHT22;24239;48.058;10.486;2023-06-22T13:52:11;33.50;89.90
38458;DHT22;24239;48.058;10.486;2023-06-22T13:54:39;33.40;87.60
38458;DHT22;24239;48.058;10.486;2023-06-22T13:57:04;33.30;89.60
38458;DHT22;24239;48.058;10.486;2023-06-22T13:59:30;33.30;89.60
38458;DHT22;24239;48.058;10.486;2023-06-22T14:01:57;33.30;88.70
38458;DHT22;24239;48.058;10.486;2023-06-22T14:04:23;33.20;88.70
38458;DHT22;24239;48.058;10.486;2023-06-22T14:06:48;33.20;89.30
38458;DHT22;24239;48.058;10.486;2023-06-22T14:09:16;33.20;89.10
38458;DHT22;24239;48.058;10.486;2023-06-22T14:11:46;33.20;90.00
38458;DHT22;24239;48.058;10.486;2023-06-22T14:14:11;33.20;88.90
38458;DHT22;24239;48.058;10.486;2023-06-22T14:16:37;33.10;89.80
38458;DHT22;24239;48.058;10.486;2023-06-22T14:19:04;33.10;88.60
38458;DHT22;24239;48.058;10.486;2023-06-22T14:21:30;33.10;89.30
38458;DHT22;24239;48.058;10.486;2023-06-22T14:23:55;33.10;89.60
38458;DHT22;24239;48.058;10.486;2023-06-22T14:26:22;33.10;89.00
38458;DHT22;24239;48.058;10.486;2023-06-22T14:28:49;33.10;88.80
38458;DHT22;24239;48.058;10.486;2023-06-22T14:31:18;33.00;88.20
38458;DHT22;24239;48.058;10.486;2023-06-22T14:33:45;32.80;89.40
38458;DHT22;24239;48.058;10.486;2023-06-22T14:36:11;32.80;89.60
38458;DHT22;24239;48.058;10.486;2023-06-22T14:38:37;32.60;89.30
38458;DHT22;24239;48.058;10.486;2023-06-22T14:41:02;32.30;89.30
38458;DHT22;24239;48.058;10.486;2023-06-22T14:43:28;32.40;89.60
38458;DHT22;24239;48.058;10.486;2023-06-22T14:45:55;32.40;90.00
38458;DHT22;24239;48.058;10.486;2023-06-22T14:48:20;32.50;90.00
38458;DHT22;24239;48.058;10.486;2023-06-22T14:50:47;32.70;89.40
38458;DHT22;24239;48.058;10.486;2023-06-22T14:53:14;32.70;88.50
38458;DHT22;24239;48.058;10.486;2023-06-22T14:55:41;32.90;88.90
38458;DHT22;24239;48.058;10.486;2023-06-22T14:58:07;32.90;86.60
38458;DHT22;24239;48.058;10.486;2023-06-22T15:00:32;33.10;87.20
38458;DHT22;24239;48.058;10.486;2023-06-22T15:02:58;33.10;85.40
38458;DHT22;24239;48.058;10.486;2023-06-22T15:05:25;33.30;87.80
38458;DHT22;24239;48.058;10.486;2023-06-22T15:07:51;33.30;87.70
38458;DHT22;24239;48.058;10.486;2023-06-22T15:10:17;33.30;87.60
38458;DHT22;24239;48.058;10.486;2023-06-22T15:12:43;33.60;87.40
38458;DHT22;24239;48.058;10.486;2023-06-22T15:15:09;33.80;88.30
38458;DHT22;24239;48.058;10.486;2023-06-22T15:17:35;33.80;89.20
38458;DHT22;24239;48.058;10.486;2023-06-22T15:20:01;34.00;89.60
38458;DHT22;24239;48.058;10.486;2023-06-22T15:22:28;33.80;87.40
38458;DHT22;24239;48.058;10.486;2023-06-22T15:24:58;33.70;88.20
38458;DHT22;24239;48.058;10.486;2023-06-22T15:27:25;33.30;89.30
38458;DHT22;24239;48.058;10.486;2023-06-22T15:29:52;32.90;89.30
38458;DHT22;24239;48.058;10.486;2023-06-22T15:32:19;32.40;90.50
38458;DHT22;24239;48.058;10.486;2023-06-22T15:34:44;32.00;91.10
38458;DHT22;24239;48.058;10.486;2023-06-22T15:37:10;31.70;91.50
38458;DHT22;24239;48.058;10.486;2023-06-22T15:39:36;31.40;92.10
38458;DHT22;24239;48.058;10.486;2023-06-22T15:42:01;31.20;92.60
38458;DHT22;24239;48.058;10.486;2023-06-22T15:44:28;31.40;92.70
38458;DHT22;24239;48.058;10.486;2023-06-22T15:46:57;31.40;91.90
38458;DHT22;24239;48.058;10.486;2023-06-22T15:49:23;31.40;91.40
38458;DHT22;24239;48.058;10.486;2023-06-22T15:51:49;31.30;91.60
38458;DHT22;24239;48.058;10.486;2023-06-22T15:54:16;31.00;91.60
38458;DHT22;24239;48.058;10.486;2023-06-22T15:56:43;30.80;91.90
38458;DHT22;24239;48.058;10.486;2023-06-22T15:59:10;30.70;92.10
38458;DHT22;24239;48.058;10.486;2023-06-22T16:01:35;30.50;92.40
38458;DHT22;24239;48.058;10.486;2023-06-22T16:04:01;30.20;92.80
38458;DHT22;24239;48.058;10.486;2023-06-22T16:06:28;30.00;93.00
38458;DHT22;24239;48.058;10.486;2023-06-22T16:08:54;29.80;93.40
38458;DHT22;24239;48.058;10.486;2023-06-22T16:11:21;29.60;95.00
38458;DHT22;24239;48.058;10.486;2023-06-22T16:13:49;28.60;97.10
38458;DHT22;24239;48.058;10.486;2023-06-22T16:16:15;27.70;97.50
38458;DHT22;24239;48.058;10.486;2023-06-22T16:18:42;27.00;98.80
38458;DHT22;24239;48.058;10.486;2023-06-22T16:21:08;26.60;98.60
38458;DHT22;24239;48.058;10.486;2023-06-22T16:23:36;26.40;99.00
38458;DHT22;24239;48.058;10.486;2023-06-22T16:26:03;26.40;98.80
38458;DHT22;24239;48.058;10.486;2023-06-22T16:28:31;26.50;99.30
38458;DHT22;24239;48.058;10.486;2023-06-22T16:30:56;26.60;99.90
38458;DHT22;24239;48.058;10.486;2023-06-22T16:33:22;26.70;99.90
38458;DHT22;24239;48.058;10.486;2023-06-22T16:35:50;26.80;99.70
38458;DHT22;24239;48.058;10.486;2023-06-22T16:38:17;27.00;99.90
38458;DHT22;24239;48.058;10.486;2023-06-22T16:40:46;27.10;99.90
38458;DHT22;24239;48.058;10.486;2023-06-22T16:43:13;27.20;99.90
38458;DHT22;24239;48.058;10.486;2023-06-22T16:45:42;27.30;99.90
38458;DHT22;24239;48.058;10.486;2023-06-22T16:48:11;27.50;99.90
38458;DHT22;24239;48.058;10.486;2023-06-22T16:50:40;27.70;99.90
38458;DHT22;24239;48.058;10.486;2023-06-22T16:53:11;27.90;99.90
38458;DHT22;24239;48.058;10.486;2023-06-22T16:55:38;28.10;99.90
38458;DHT22;24239;48.058;10.486;2023-06-22T16:58:04;28.20;99.90
38458;DHT22;24239;48.058;10.486;2023-06-22T17:00:29;28.40;99.90
38458;DHT22;24239;48.058;10.486;2023-06-22T17:02:56;28.70;99.60
38458;DHT22;24239;48.058;10.486;2023-06-22T17:05:22;29.20;98.60
38458;DHT22;24239;48.058;10.486;2023-06-22T17:07:55;29.40;98.40
38458;DHT22;24239;48.058;10.486;2023-06-22T17:10:24;29.30;97.50
38458;DHT22;24239;48.058;10.486;2023-06-22T17:12:50;29.20;97.80
38458;DHT22;24239;48.058;10.486;2023-06-22T17:15:16;28.90;97.80
38458;DHT22;24239;48.058;10.486;2023-06-22T17:17:42;28.50;97.40
38458;DHT22;24239;48.058;10.486;2023-06-22T17:20:08;28.30;98.20
38458;DHT22;24239;48.058;10.486;2023-06-22T17:22:34;28.20;98.20
38458;DHT22;24239;48.058;10.486;2023-06-22T17:25:06;28.10;98.50
38458;DHT22;24239;48.058;10.486;2023-06-22T17:27:34;28.10;98.90
38458;DHT22;24239;48.058;10.486;2023-06-22T17:32:33;28.00;98.50
38458;DHT22;24239;48.058;10.486;2023-06-22T17:34:59;28.30;98.30
38458;DHT22;24239;48.058;10.486;2023-06-22T17:37:24;28.70;97.70
38458;DHT22;24239;48.058;10.486;2023-06-22T17:39:52;29.00;97.70
38458;DHT22;24239;48.058;10.486;2023-06-22T17:42:22;29.10;99.20
38458;DHT22;24239;48.058;10.486;2023-06-22T17:44:50;29.20;98.20
38458;DHT22;24239;48.058;10.486;2023-06-22T17:47:25;28.90;98.70
38458;DHT22;24239;48.058;10.486;2023-06-22T17:49:50;28.40;98.90
38458;DHT22;24239;48.058;10.486;2023-06-22T17:52:17;28.20;99.60
38458;DHT22;24239;48.058;10.486;2023-06-22T17:54:44;27.90;99.90
38458;DHT22;24239;48.058;10.486;2023-06-22T17:57:13;27.70;99.90
38458;DHT22;24239;48.058;10.486;2023-06-22T17:59:39;27.50;99.90
38458;DHT22;24239;48.058;10.486;2023-06-22T18:02:06;27.30;99.90
38458;DHT22;24239;48.058;10.486;2023-06-22T18:04:34;27.10;99.90
38458;DHT22;24239;48.058;10.486;2023-06-22T18:07:00;26.90;99.90
38458;DHT22;24239;48.058;10.486;2023-06-22T18:09:28;26.80;99.90
38458;DHT22;24239;48.058;10.486;2023-06-22T18:11:57;26.60;99.90
38458;DHT22;24239;48.058;10.486;2023-06-22T18:14:24;26.60;99.90
38458;DHT22;24239;48.058;10.486;2023-06-22T18:16:50;26.50;99.90
38458;DHT22;24239;48.058;10.486;2023-06-22T18:19:17;26.50;99.90
38458;DHT22;24239;48.058;10.486;2023-06-22T18:21:47;26.40;98.90
38458;DHT22;24239;48.058;10.486;2023-06-22T18:24:16;26.40;99.10
38458;DHT22;24239;48.058;10.486;2023-06-22T18:26:42;26.30;98.50
38458;DHT22;24239;48.058;10.486;2023-06-22T18:29:09;26.30;98.10
38458;DHT22;24239;48.058;10.486;2023-06-22T18:31:34;26.20;98.30
38458;DHT22;24239;48.058;10.486;2023-06-22T18:34:00;26.10;98.10
38458;DHT22;24239;48.058;10.486;2023-06-22T18:36:29;26.00;97.90
38458;DHT22;24239;48.058;10.486;2023-06-22T18:39:00;25.90;97.90
38458;DHT22;24239;48.058;10.486;2023-06-22T18:43:59;25.70;97.00
38458;DHT22;24239;48.058;10.486;2023-06-22T18:46:37;25.70;97.20
38458;DHT22;24239;48.058;10.486;2023-06-22T18:49:12;25.60;97.30
38458;DHT22;24239;48.058;10.486;2023-06-22T18:54:22;25.50;96.40
38458;DHT22;24239;48.058;10.486;2023-06-22T18:56:55;25.40;96.20
38458;DHT22;24239;48.058;10.486;2023-06-22T19:02:09;25.20;96.20
38458;DHT22;24239;48.058;10.486;2023-06-22T19:04:43;25.20;96.10
38458;DHT22;24239;48.058;10.486;2023-06-22T19:07:09;25.10;96.60
38458;DHT22;24239;48.058;10.486;2023-06-22T19:09:37;24.90;97.80
38458;DHT22;24239;48.058;10.486;2023-06-22T19:12:17;24.70;98.90
38458;DHT22;24239;48.058;10.486;2023-06-22T19:17:27;24.00;99.90
38458;DHT22;24239;48.058;10.486;2023-06-22T19:19:55;23.60;99.90
38458;DHT22;24239;48.058;10.486;2023-06-22T19:22:42;23.40;99.90
38458;DHT22;24239;48.058;10.486;2023-06-22T19:25:21;23.00;99.90
38458;DHT22;24239;48.058;10.486;2023-06-22T19:27:47;22.50;99.90
38458;DHT22;24239;48.058;10.486;2023-06-22T19:30:14;22.20;99.90
38458;DHT22;24239;48.058;10.486;2023-06-22T19:32:39;22.10;99.90
38458;DHT22;24239;48.058;10.486;2023-06-22T19:35:09;21.90;99.90
38458;DHT22;24239;48.058;10.486;2023-06-22T19:37:35;21.80;99.90
38458;DHT22;24239;48.058;10.486;2023-06-22T19:40:01;21.60;99.90
38458;DHT22;24239;48.058;10.486;2023-06-22T19:42:27;21.50;99.90
38458;DHT22;24239;48.058;10.486;2023-06-22T19:44:52;21.50;99.90
38458;DHT22;24239;48.058;10.486;2023-06-22T19:47:19;21.40;99.90
38458;DHT22;24239;48.058;10.486;2023-06-22T19:49:46;21.40;99.90
38458;DHT22;24239;48.058;10.486;2023-06-22T19:52:12;21.40;99.90
38458;DHT22;24239;48.058;10.486;2023-06-22T19:54:40;21.40;99.90
38458;DHT22;24239;48.058;10.486;2023-06-22T19:57:09;21.30;99.90
38458;DHT22;24239;48.058;10.486;2023-06-22T19:59:38;21.30;99.90
38458;DHT22;24239;48.058;10.486;2023-06-22T20:02:07;21.20;99.90
38458;DHT22;24239;48.058;10.486;2023-06-22T20:04:36;21.20;99.90
38458;DHT22;24239;48.058;10.486;2023-06-22T20:07:05;21.10;99.90
38458;DHT22;24239;48.058;10.486;2023-06-22T20:09:32;21.10;99.90
38458;DHT22;24239;48.058;10.486;2023-06-22T20:11:59;21.00;99.90
38458;DHT22;24239;48.058;10.486;2023-06-22T20:14:32;21.00;99.90
38458;DHT22;24239;48.058;10.486;2023-06-22T20:16:59;21.00;99.90
38458;DHT22;24239;48.058;10.486;2023-06-22T20:19:35;21.00;99.90
38458;DHT22;24239;48.058;10.486;2023-06-22T20:22:05;20.90;99.90
38458;DHT22;24239;48.058;10.486;2023-06-22T20:24:31;20.90;99.90
38458;DHT22;24239;48.058;10.486;2023-06-22T20:26:59;20.90;99.90
38458;DHT22;24239;48.058;10.486;2023-06-22T20:29:31;20.80;99.90
38458;DHT22;24239;48.058;10.486;2023-06-22T20:32:02;20.80;99.90
38458;DHT22;24239;48.058;10.486;2023-06-22T20:34:32;20.80;99.90
38458;DHT22;24239;48.058;10.486;2023-06-22T20:36:57;20.80;99.90
38458;DHT22;24239;48.058;10.486;2023-06-22T20:39:23;20.80;99.90
38458;DHT22;24239;48.058;10.486;2023-06-22T20:41:49;20.70;99.90
38458;DHT22;24239;48.058;10.486;2023-06-22T20:44:14;20.60;99.90
38458;DHT22;24239;48.058;10.486;2023-06-22T20:46:40;20.60;99.90
38458;DHT22;24239;48.058;10.486;2023-06-22T20:49:05;20.60;99.90
38458;DHT22;24239;48.058;10.486;2023-06-22T20:51:31;20.50;99.90
38458;DHT22;24239;48.058;10.486;2023-06-22T20:53:57;20.50;99.90
38458;DHT22;24239;48.058;10.486;2023-06-22T20:56:23;20.40;99.90
38458;DHT22;24239;48.058;10.486;2023-06-22T20:58:49;20.30;99.90
38458;DHT22;24239;48.058;10.486;2023-06-22T21:01:14;20.40;99.90
38458;DHT22;24239;48.058;10.486;2023-06-22T21:03:43;20.30;99.90
38458;DHT22;24239;48.058;10.486;2023-06-22T21:06:09;20.30;99.90
38458;DHT22;24239;48.058;10.486;2023-06-22T21:08:34;20.30;99.90
38458;DHT22;24239;48.058;10.486;2023-06-22T21:11:01;20.30;99.90
38458;DHT22;24239;48.058;10.486;2023-06-22T21:13:27;20.20;99.90
38458;DHT22;24239;48.058;10.486;2023-06-22T21:15:55;20.20;99.90
38458;DHT22;24239;48.058;10.486;2023-06-22T21:18:21;20.20;99.90
38458;DHT22;24239;48.058;10.486;2023-06-22T21:20:46;20.10;99.90
38458;DHT22;24239;48.058;10.486;2023-06-22T21:23:12;20.10;99.90
38458;DHT22;24239;48.058;10.486;2023-06-22T21:25:38;20.10;99.90
38458;DHT22;24239;48.058;10.486;2023-06-22T21:28:04;20.00;99.90
38458;DHT22;24239;48.058;10.486;2023-06-22T21:30:29;19.90;99.90
38458;DHT22;24239;48.058;10.486;2023-06-22T21:32:55;19.90;99.90
38458;DHT22;24239;48.058;10.486;2023-06-22T21:35:20;19.80;99.90
38458;DHT22;24239;48.058;10.486;2023-06-22T21:37:46;19.80;99.90
38458;DHT22;24239;48.058;10.486;2023-06-22T21:40:12;19.70;99.90
38458;DHT22;24239;48.058;10.486;2023-06-22T21:42:37;19.60;99.90
38458;DHT22;24239;48.058;10.486;2023-06-22T21:45:03;19.60;99.90
38458;DHT22;24239;48.058;10.486;2023-06-22T21:47:28;19.60;99.90